sensor_id;sensor_type;location;lat;lon;timestamp;temperature;humidity
22607;DHT22;11470;20.968;105.834;2022-08-19T00:03:28;29.40;99.90
22607;DHT22;11470;20.968;105.834;2022-08-19T00:08:34;29.50;99.90
22607;DHT22;11470;20.968;105.834;2022-08-19T00:13:45;29.50;99.90
22607;DHT22;11470;20.968;105.834;2022-08-19T00:18:54;29.60;99.90
22607;DHT22;11470;20.968;105.834;2022-08-19T00:24:03;29.60;99.90
22607;DHT22;11470;20.968;105.834;2022-08-19T00:29:12;29.70;99.90
22607;DHT22;11470;20.968;105.834;2022-08-19T00:34:17;29.70;99.90
22607;DHT22;11470;20.968;105.834;2022-08-19T00:39:24;29.90;99.90
22607;DHT22;11470;20.968;105.834;2022-08-19T00:44:30;30.00;99.90
22607;DHT22;11470;20.968;105.834;2022-08-19T00:49:48;30.20;99.90
22607;DHT22;11470;20.968;105.834;2022-08-19T00:54:58;30.40;99.90
22607;DHT22;11470;20.968;105.834;2022-08-19T01:00:10;30.70;99.90
22607;DHT22;11470;20.968;105.834;2022-08-19T01:05:31;30.90;99.90
22607;DHT22;11470;20.968;105.834;2022-08-19T01:10:45;31.30;99.90
22607;DHT22;11470;20.968;105.834;2022-08-19T01:15:58;31.80;99.90
22607;DHT22;11470;20.968;105.834;2022-08-19T01:21:11;32.10;99.90
22607;DHT22;11470;20.968;105.834;2022-08-19T01:26:23;32.20;99.90
22607;DHT22;11470;20.968;105.834;2022-08-19T01:31:30;32.20;99.90
22607;DHT22;11470;20.968;105.834;2022-08-19T01:36:43;32.30;99.90
22607;DHT22;11470;20.968;105.834;2022-08-19T01:41:54;32.50;99.90
22607;DHT22;11470;20.968;105.834;2022-08-19T01:47:00;32.60;99.90
22607;DHT22;11470;20.968;105.834;2022-08-19T01:52:06;32.60;99.90
22607;DHT22;11470;20.968;105.834;2022-08-19T01:57:13;32.40;99.90
22607;DHT22;11470;20.968;105.834;2022-08-19T02:02:19;32.70;99.90
22607;DHT22;11470;20.968;105.834;2022-08-19T02:07:26;32.80;99.90
22607;DHT22;11470;20.968;105.834;2022-08-19T02:12:33;33.20;99.90
22607;DHT22;11470;20.968;105.834;2022-08-19T02:17:40;33.80;99.90
22607;DHT22;11470;20.968;105.834;2022-08-19T02:22:46;34.50;99.90
22607;DHT22;11470;20.968;105.834;2022-08-19T02:27:51;35.10;99.90
22607;DHT22;11470;20.968;105.834;2022-08-19T02:32:57;35.10;99.90
22607;DHT22;11470;20.968;105.834;2022-08-19T02:38:03;34.70;99.90
22607;DHT22;11470;20.968;105.834;2022-08-19T02:43:29;35.00;99.90
22607;DHT22;11470;20.968;105.834;2022-08-19T02:48:37;34.80;99.90
22607;DHT22;11470;20.968;105.834;2022-08-19T02:53:47;34.90;99.90
22607;DHT22;11470;20.968;105.834;2022-08-19T02:58:54;35.10;99.90
22607;DHT22;11470;20.968;105.834;2022-08-19T03:04:03;34.90;99.90
22607;DHT22;11470;20.968;105.834;2022-08-19T03:09:10;34.50;99.90
22607;DHT22;11470;20.968;105.834;2022-08-19T03:14:16;33.50;99.90
22607;DHT22;11470;20.968;105.834;2022-08-19T03:19:22;33.60;99.90
22607;DHT22;11470;20.968;105.834;2022-08-19T03:24:28;34.40;99.90
22607;DHT22;11470;20.968;105.834;2022-08-19T03:29:37;35.30;99.90
22607;DHT22;11470;20.968;105.834;2022-08-19T03:34:46;36.30;99.90
22607;DHT22;11470;20.968;105.834;2022-08-19T03:39:52;36.40;99.90
22607;DHT22;11470;20.968;105.834;2022-08-19T03:44:58;35.30;99.90
22607;DHT22;11470;20.968;105.834;2022-08-19T03:50:05;34.30;99.90
22607;DHT22;11470;20.968;105.834;2022-08-19T03:55:11;34.70;99.90
22607;DHT22;11470;20.968;105.834;2022-08-19T04:00:16;35.80;99.90
22607;DHT22;11470;20.968;105.834;2022-08-19T04:05:23;36.40;99.90
22607;DHT22;11470;20.968;105.834;2022-08-19T04:10:30;36.10;99.90
22607;DHT22;11470;20.968;105.834;2022-08-19T04:15:42;35.00;99.90
22607;DHT22;11470;20.968;105.834;2022-08-19T04:20:48;34.40;99.90
22607;DHT22;11470;20.968;105.834;2022-08-19T04:25:55;34.60;99.90
22607;DHT22;11470;20.968;105.834;2022-08-19T04:31:01;35.30;99.90
22607;DHT22;11470;20.968;105.834;2022-08-19T04:36:10;36.10;99.90
22607;DHT22;11470;20.968;105.834;2022-08-19T04:41:23;36.80;99.90
22607;DHT22;11470;20.968;105.834;2022-08-19T04:46:49;38.10;99.90
22607;DHT22;11470;20.968;105.834;2022-08-19T04:51:55;38.00;99.90
22607;DHT22;11470;20.968;105.834;2022-08-19T04:57:01;36.90;99.90
22607;DHT22;11470;20.968;105.834;2022-08-19T05:02:09;35.60;99.90
22607;DHT22;11470;20.968;105.834;2022-08-19T05:07:16;35.00;99.90
22607;DHT22;11470;20.968;105.834;2022-08-19T05:12:22;35.10;99.90
22607;DHT22;11470;20.968;105.834;2022-08-19T05:17:32;37.40;99.90
22607;DHT22;11470;20.968;105.834;2022-08-19T05:22:42;39.90;99.90
22607;DHT22;11470;20.968;105.834;2022-08-19T05:27:49;38.60;99.90
22607;DHT22;11470;20.968;105.834;2022-08-19T05:32:55;38.00;99.90
22607;DHT22;11470;20.968;105.834;2022-08-19T05:38:01;38.80;99.90
22607;DHT22;11470;20.968;105.834;2022-08-19T05:43:08;39.60;99.90
22607;DHT22;11470;20.968;105.834;2022-08-19T05:48:14;40.80;99.90
22607;DHT22;11470;20.968;105.834;2022-08-19T05:53:22;39.10;99.90
22607;DHT22;11470;20.968;105.834;2022-08-19T05:58:28;37.80;99.90
22607;DHT22;11470;20.968;105.834;2022-08-19T06:03:34;39.00;99.90
22607;DHT22;11470;20.968;105.834;2022-08-19T06:08:42;40.50;99.90
22607;DHT22;11470;20.968;105.834;2022-08-19T06:13:52;39.10;99.90
22607;DHT22;11470;20.968;105.834;2022-08-19T06:19:05;37.60;99.90
22607;DHT22;11470;20.968;105.834;2022-08-19T06:24:14;37.10;99.90
22607;DHT22;11470;20.968;105.834;2022-08-19T06:29:22;36.90;99.90
22607;DHT22;11470;20.968;105.834;2022-08-19T06:34:31;36.50;99.90
22607;DHT22;11470;20.968;105.834;2022-08-19T06:39:39;36.10;99.90
22607;DHT22;11470;20.968;105.834;2022-08-19T06:44:47;36.00;99.90
22607;DHT22;11470;20.968;105.834;2022-08-19T06:49:59;35.90;99.90
22607;DHT22;11470;20.968;105.834;2022-08-19T06:55:08;36.30;99.90
22607;DHT22;11470;20.968;105.834;2022-08-19T07:00:14;37.10;99.90
22607;DHT22;11470;20.968;105.834;2022-08-19T07:05:21;37.30;99.90
22607;DHT22;11470;20.968;105.834;2022-08-19T07:10:26;37.80;99.90
22607;DHT22;11470;20.968;105.834;2022-08-19T07:15:32;38.90;99.90
22607;DHT22;11470;20.968;105.834;2022-08-19T07:20:42;40.00;99.90
22607;DHT22;11470;20.968;105.834;2022-08-19T07:25:49;40.60;99.90
22607;DHT22;11470;20.968;105.834;2022-08-19T07:30:55;40.10;99.90
22607;DHT22;11470;20.968;105.834;2022-08-19T07:36:07;41.80;99.90
22607;DHT22;11470;20.968;105.834;2022-08-19T07:41:22;40.40;99.90
22607;DHT22;11470;20.968;105.834;2022-08-19T07:46:32;39.30;99.90
22607;DHT22;11470;20.968;105.834;2022-08-19T07:51:38;37.80;94.00
22607;DHT22;11470;20.968;105.834;2022-08-19T07:56:48;38.10;95.50
22607;DHT22;11470;20.968;105.834;2022-08-19T08:01:56;37.50;94.30
22607;DHT22;11470;20.968;105.834;2022-08-19T08:07:04;36.70;92.40
22607;DHT22;11470;20.968;105.834;2022-08-19T08:12:38;37.00;95.40
22607;DHT22;11470;20.968;105.834;2022-08-19T08:18:07;37.80;98.10
22607;DHT22;11470;20.968;105.834;2022-08-19T08:23:13;37.40;97.00
22607;DHT22;11470;20.968;105.834;2022-08-19T08:28:29;37.30;96.50
22607;DHT22;11470;20.968;105.834;2022-08-19T08:33:36;37.20;96.70
22607;DHT22;11470;20.968;105.834;2022-08-19T08:38:46;37.70;98.80
22607;DHT22;11470;20.968;105.834;2022-08-19T08:43:53;38.10;99.90
22607;DHT22;11470;20.968;105.834;2022-08-19T08:49:24;37.70;98.10
22607;DHT22;11470;20.968;105.834;2022-08-19T08:54:35;37.20;95.30
22607;DHT22;11470;20.968;105.834;2022-08-19T08:59:42;36.40;93.30
22607;DHT22;11470;20.968;105.834;2022-08-19T09:04:49;36.30;95.50
22607;DHT22;11470;20.968;105.834;2022-08-19T09:15:38;36.20;94.00
22607;DHT22;11470;20.968;105.834;2022-08-19T09:20:46;36.20;94.70
22607;DHT22;11470;20.968;105.834;2022-08-19T09:25:52;36.10;94.80
22607;DHT22;11470;20.968;105.834;2022-08-19T09:30:58;35.70;94.20
22607;DHT22;11470;20.968;105.834;2022-08-19T09:36:10;35.50;93.70
22607;DHT22;11470;20.968;105.834;2022-08-19T09:41:25;35.20;93.50
22607;DHT22;11470;20.968;105.834;2022-08-19T09:46:32;35.00;93.30
22607;DHT22;11470;20.968;105.834;2022-08-19T09:51:37;34.70;94.10
22607;DHT22;11470;20.968;105.834;2022-08-19T09:56:44;34.50;94.30
22607;DHT22;11470;20.968;105.834;2022-08-19T10:01:50;34.30;96.00
22607;DHT22;11470;20.968;105.834;2022-08-19T10:06:56;34.40;96.50
22607;DHT22;11470;20.968;105.834;2022-08-19T10:12:04;34.30;96.00
22607;DHT22;11470;20.968;105.834;2022-08-19T10:17:13;34.30;95.10
22607;DHT22;11470;20.968;105.834;2022-08-19T10:22:24;34.10;94.60
22607;DHT22;11470;20.968;105.834;2022-08-19T10:27:30;34.00;95.60
22607;DHT22;11470;20.968;105.834;2022-08-19T10:32:38;33.80;93.90
22607;DHT22;11470;20.968;105.834;2022-08-19T10:37:48;33.70;94.10
22607;DHT22;11470;20.968;105.834;2022-08-19T10:43:04;33.40;93.80
22607;DHT22;11470;20.968;105.834;2022-08-19T10:48:09;33.30;94.80
22607;DHT22;11470;20.968;105.834;2022-08-19T10:53:22;33.20;95.30
22607;DHT22;11470;20.968;105.834;2022-08-19T10:58:30;33.20;96.40
22607;DHT22;11470;20.968;105.834;2022-08-19T11:03:36;33.10;97.30
22607;DHT22;11470;20.968;105.834;2022-08-19T11:08:44;33.00;98.30
22607;DHT22;11470;20.968;105.834;2022-08-19T11:13:51;32.80;98.40
22607;DHT22;11470;20.968;105.834;2022-08-19T11:18:59;32.80;99.20
22607;DHT22;11470;20.968;105.834;2022-08-19T11:24:11;32.70;99.90
22607;DHT22;11470;20.968;105.834;2022-08-19T11:29:20;32.70;99.90
22607;DHT22;11470;20.968;105.834;2022-08-19T11:34:27;32.50;99.90
22607;DHT22;11470;20.968;105.834;2022-08-19T11:39:34;32.40;99.90
22607;DHT22;11470;20.968;105.834;2022-08-19T11:44:42;32.40;99.90
22607;DHT22;11470;20.968;105.834;2022-08-19T11:49:47;32.40;99.90
22607;DHT22;11470;20.968;105.834;2022-08-19T11:54:53;32.30;99.90
22607;DHT22;11470;20.968;105.834;2022-08-19T11:59:59;32.20;99.90
22607;DHT22;11470;20.968;105.834;2022-08-19T12:05:07;32.20;99.90
22607;DHT22;11470;20.968;105.834;2022-08-19T12:10:15;32.20;99.90
22607;DHT22;11470;20.968;105.834;2022-08-19T12:15:25;32.10;99.90
22607;DHT22;11470;20.968;105.834;2022-08-19T12:20:41;32.00;99.90
22607;DHT22;11470;20.968;105.834;2022-08-19T12:25:48;32.00;99.90
22607;DHT22;11470;20.968;105.834;2022-08-19T12:30:57;32.00;99.90
22607;DHT22;11470;20.968;105.834;2022-08-19T12:36:06;31.90;99.90
22607;DHT22;11470;20.968;105.834;2022-08-19T12:41:15;31.90;99.90
22607;DHT22;11470;20.968;105.834;2022-08-19T12:46:23;31.70;99.90
22607;DHT22;11470;20.968;105.834;2022-08-19T12:51:28;31.60;99.90
22607;DHT22;11470;20.968;105.834;2022-08-19T12:56:36;31.50;99.90
22607;DHT22;11470;20.968;105.834;2022-08-19T13:01:42;31.40;99.90
22607;DHT22;11470;20.968;105.834;2022-08-19T13:06:48;31.30;99.90
22607;DHT22;11470;20.968;105.834;2022-08-19T13:11:54;31.10;99.90
22607;DHT22;11470;20.968;105.834;2022-08-19T13:17:01;31.00;99.90
22607;DHT22;11470;20.968;105.834;2022-08-19T13:22:07;31.00;99.90
22607;DHT22;11470;20.968;105.834;2022-08-19T13:27:17;30.90;99.90
22607;DHT22;11470;20.968;105.834;2022-08-19T13:32:23;30.70;99.90
22607;DHT22;11470;20.968;105.834;2022-08-19T13:37:47;30.20;99.90
22607;DHT22;11470;20.968;105.834;2022-08-19T13:42:54;29.70;99.90
22607;DHT22;11470;20.968;105.834;2022-08-19T13:48:02;29.60;99.90
22607;DHT22;11470;20.968;105.834;2022-08-19T13:53:12;29.40;99.90
22607;DHT22;11470;20.968;105.834;2022-08-19T13:58:20;29.10;99.90
22607;DHT22;11470;20.968;105.834;2022-08-19T14:03:27;28.90;99.90
22607;DHT22;11470;20.968;105.834;2022-08-19T14:08:33;28.30;99.90
22607;DHT22;11470;20.968;105.834;2022-08-19T14:13:39;28.10;99.90
22607;DHT22;11470;20.968;105.834;2022-08-19T14:18:45;27.90;99.90
22607;DHT22;11470;20.968;105.834;2022-08-19T14:23:52;27.90;99.90
22607;DHT22;11470;20.968;105.834;2022-08-19T14:28:58;28.00;99.90
22607;DHT22;11470;20.968;105.834;2022-08-19T14:34:04;28.00;99.90
22607;DHT22;11470;20.968;105.834;2022-08-19T16:11:35;28.00;99.90
22607;DHT22;11470;20.968;105.834;2022-08-19T16:16:42;28.50;99.90
22607;DHT22;11470;20.968;105.834;2022-08-19T16:21:52;28.50;99.90
22607;DHT22;11470;20.968;105.834;2022-08-19T16:26:58;28.40;99.90
22607;DHT22;11470;20.968;105.834;2022-08-19T16:32:08;28.40;99.90
22607;DHT22;11470;20.968;105.834;2022-08-19T16:37:14;28.40;99.90
22607;DHT22;11470;20.968;105.834;2022-08-19T16:42:23;28.40;99.90
22607;DHT22;11470;20.968;105.834;2022-08-19T16:47:29;28.50;99.90
22607;DHT22;11470;20.968;105.834;2022-08-19T16:52:34;28.40;99.90
22607;DHT22;11470;20.968;105.834;2022-08-19T16:57:41;28.40;99.90
22607;DHT22;11470;20.968;105.834;2022-08-19T17:02:47;28.50;99.90
22607;DHT22;11470;20.968;105.834;2022-08-19T17:07:53;28.50;99.90
22607;DHT22;11470;20.968;105.834;2022-08-19T17:12:59;28.60;99.90
22607;DHT22;11470;20.968;105.834;2022-08-19T17:18:07;28.60;99.90
22607;DHT22;11470;20.968;105.834;2022-08-19T17:23:14;28.60;99.90
22607;DHT22;11470;20.968;105.834;2022-08-19T17:28:23;28.70;99.90
22607;DHT22;11470;20.968;105.834;2022-08-19T17:33:29;28.70;99.90
22607;DHT22;11470;20.968;105.834;2022-08-19T17:38:35;28.70;99.90
22607;DHT22;11470;20.968;105.834;2022-08-19T17:43:43;28.70;99.90
22607;DHT22;11470;20.968;105.834;2022-08-19T17:48:50;28.70;99.90
22607;DHT22;11470;20.968;105.834;2022-08-19T17:53:59;28.80;99.90
22607;DHT22;11470;20.968;105.834;2022-08-19T17:59:05;28.90;99.90
22607;DHT22;11470;20.968;105.834;2022-08-19T18:04:17;28.90;99.90
22607;DHT22;11470;20.968;105.834;2022-08-19T18:09:28;28.90;99.90
22607;DHT22;11470;20.968;105.834;2022-08-19T18:14:44;28.90;99.90
22607;DHT22;11470;20.968;105.834;2022-08-19T18:19:51;28.90;99.90
22607;DHT22;11470;20.968;105.834;2022-08-19T18:24:57;28.90;99.90
22607;DHT22;11470;20.968;105.834;2022-08-19T18:30:05;28.90;99.90
22607;DHT22;11470;20.968;105.834;2022-08-19T18:35:14;28.80;99.90
22607;DHT22;11470;20.968;105.834;2022-08-19T18:40:22;28.80;99.90
22607;DHT22;11470;20.968;105.834;2022-08-19T18:46:05;28.90;99.90
22607;DHT22;11470;20.968;105.834;2022-08-19T18:51:35;28.90;99.90
22607;DHT22;11470;20.968;105.834;2022-08-19T18:56:41;28.90;99.90
22607;DHT22;11470;20.968;105.834;2022-08-19T19:01:52;28.80;99.90
22607;DHT22;11470;20.968;105.834;2022-08-19T19:07:00;28.80;99.90
22607;DHT22;11470;20.968;105.834;2022-08-19T19:12:09;28.90;99.90
22607;DHT22;11470;20.968;105.834;2022-08-19T19:17:15;28.90;99.90
22607;DHT22;11470;20.968;105.834;2022-08-19T19:22:21;28.80;99.90
22607;DHT22;11470;20.968;105.834;2022-08-19T19:27:27;28.80;99.90
22607;DHT22;11470;20.968;105.834;2022-08-19T19:32:32;28.80;99.90
22607;DHT22;11470;20.968;105.834;2022-08-19T19:37:41;28.80;99.90
22607;DHT22;11470;20.968;105.834;2022-08-19T19:42:49;28.80;99.90
22607;DHT22;11470;20.968;105.834;2022-08-19T19:47:55;28.80;99.90
22607;DHT22;11470;20.968;105.834;2022-08-19T19:53:02;28.80;99.90
22607;DHT22;11470;20.968;105.834;2022-08-19T19:58:08;28.80;99.90
22607;DHT22;11470;20.968;105.834;2022-08-19T20:03:14;28.90;99.90
22607;DHT22;11470;20.968;105.834;2022-08-19T20:08:26;28.90;99.90
22607;DHT22;11470;20.968;105.834;2022-08-19T20:13:50;29.00;99.90
22607;DHT22;11470;20.968;105.834;2022-08-19T20:18:57;29.00;99.90
22607;DHT22;11470;20.968;105.834;2022-08-19T20:24:03;29.00;99.90
22607;DHT22;11470;20.968;105.834;2022-08-19T20:29:14;29.00;99.90
22607;DHT22;11470;20.968;105.834;2022-08-19T20:34:40;28.30;99.90
22607;DHT22;11470;20.968;105.834;2022-08-19T20:39:48;27.50;99.90
22607;DHT22;11470;20.968;105.834;2022-08-19T20:44:53;27.10;99.90
22607;DHT22;11470;20.968;105.834;2022-08-19T20:49:59;26.80;99.90
22607;DHT22;11470;20.968;105.834;2022-08-19T20:55:05;26.80;1.00
22607;DHT22;11470;20.968;105.834;2022-08-19T21:00:11;26.80;1.00
22607;DHT22;11470;20.968;105.834;2022-08-19T21:05:17;26.50;1.00
22607;DHT22;11470;20.968;105.834;2022-08-19T21:10:23;26.40;1.00
22607;DHT22;11470;20.968;105.834;2022-08-19T23:18:17;26.10;1.00
22607;DHT22;11470;20.968;105.834;2022-08-19T23:23:24;25.90;1.00
22607;DHT22;11470;20.968;105.834;2022-08-19T23:28:30;26.00;1.00
22607;DHT22;11470;20.968;105.834;2022-08-19T23:33:54;26.10;76.70
22607;DHT22;11470;20.968;105.834;2022-08-19T23:38:59;26.20;99.90
22607;DHT22;11470;20.968;105.834;2022-08-19T23:44:04;26.20;99.90
22607;DHT22;11470;20.968;105.834;2022-08-19T23:49:17;26.00;99.90
22607;DHT22;11470;20.968;105.834;2022-08-19T23:54:22;25.90;1.00
22607;DHT22;11470;20.968;105.834;2022-08-19T23:59:46;26.00;1.00
